Time;durP1;ratioP1;P1;durP2;ratioP2;P2;SDS_P1;SDS_P2;PMS_P1;PMS_P2;Temp;Humidity;BMP_temperature;BMP_pressure;BME280_temperature;BME280_humidity;BME280_pressure;Samples;Min_cycle;Max_cycle;Signal;HPM_P1;HPM_P2
2022/02/05 00:01:54;;;;;;;;;5.00;5.00;;;;;7.11;80.13;101539.06;4858082;29;45554;-84
2022/02/05 00:04:20;;;;;;;;;4.33;2.67;;;;;7.04;80.06;101534.38;4839760;29;45543;-85
2022/02/05 00:06:50;;;;;;;;;3.00;3.00;;;;;7.10;79.86;101542.56;4839667;29;47413;-85
2022/02/05 00:33:17;;;;;;;;;5.00;5.00;;;;;6.96;80.19;101532.28;4725875;30;45513;-86
2022/02/05 00:45:08;;;;;;;;;4.33;4.33;;;;;6.93;80.19;101540.13;4705792;30;45392;-85
2022/02/05 00:47:37;;;;;;;;;2.00;2.00;;;;;7.03;80.30;101551.06;4705854;30;45474;-85
2022/02/05 00:50:06;;;;;;;;;5.00;3.00;;;;;7.04;80.49;101548.50;4735681;30;45974;-85
2022/02/05 00:52:31;;;;;;;;;4.33;4.33;;;;;7.04;80.12;101555.53;4726684;30;45569;-85
2022/02/05 00:55:10;;;;;;;;;2.67;2.67;;;;;6.98;80.18;101553.53;4741135;30;45469;-85
2022/02/05 00:57:45;;;;;;;;;4.33;4.33;;;;;6.97;80.03;101546.44;4741506;30;45460;-85
2022/02/05 01:00:13;;;;;;;;;5.67;2.33;;;;;7.01;80.31;101546.63;4729591;30;47177;-85
2022/02/05 01:02:38;;;;;;;;;8.00;4.33;;;;;6.99;80.46;101548.31;4776695;29;44962;-85
2022/02/05 01:05:04;;;;;;;;;5.67;2.67;;;;;7.04;80.47;101547.59;4797643;29;45542;-84
2022/02/05 01:07:30;;;;;;;;;5.00;2.00;;;;;6.99;80.35;101543.03;4796256;29;45636;-84
2022/02/05 01:09:55;;;;;;;;;2.33;2.33;;;;;6.97;80.50;101547.34;4780263;29;48135;-85
2022/02/05 01:12:21;;;;;;;;;7.67;3.00;;;;;6.99;80.64;101556.25;4797817;29;45516;-85
2022/02/05 01:14:52;;;;;;;;;2.67;2.00;;;;;7.01;80.49;101570.44;4798861;29;45559;-85
2022/02/05 01:17:24;;;;;;;;;5.00;5.00;;;;;6.99;80.49;101564.19;4834361;29;45537;-85
2022/02/05 01:22:37;;;;;;;;;3.00;3.00;;;;;6.96;80.28;101563.13;4835832;29;45466;-85
2022/02/05 01:25:02;;;;;;;;;5.67;3.00;;;;;6.94;80.44;101564.81;4834160;29;45495;-85
2022/02/05 01:27:36;;;;;;;;;4.67;3.00;;;;;6.93;80.48;101563.03;4818953;29;45527;-85
2022/02/05 02:05:36;;;;;;;;;2.33;2.33;;;;;6.75;80.81;101603.69;4774504;29;45524;-86
2022/02/05 02:18:02;;;;;;;;;0.00;0.00;;;;;6.74;80.64;101614.19;4832014;29;45469;-86
2022/02/05 02:22:18;;;;;;;;;6.33;3.67;;;;;6.73;80.94;101618.59;4832473;29;45441;-86
2022/02/05 02:27:28;;;;;;;;;3.00;3.00;;;;;6.66;80.52;101612.97;4831809;29;45444;-86
2022/02/05 02:32:24;;;;;;;;;3.00;2.00;;;;;6.61;81.28;101618.94;4832410;29;45402;-86
2022/02/05 02:34:58;;;;;;;;;2.00;2.00;;;;;6.67;80.91;101620.06;4815393;29;46827;-86
2022/02/05 02:43:25;;;;;;;;;3.00;3.00;;;;;6.65;81.18;101624.38;4833643;29;45425;-85
2022/02/05 02:45:51;;;;;;;;;1.00;1.00;;;;;6.64;81.01;101630.50;4832911;29;46980;-85
2022/02/05 02:48:16;;;;;;;;;3.00;1.00;;;;;6.63;80.83;101623.41;4852090;29;45458;-86
2022/02/05 02:59:00;;;;;;;;;5.67;3.67;;;;;6.63;81.24;101623.41;4851968;29;45500;-85
2022/02/05 03:01:28;;;;;;;;;8.33;5.67;;;;;6.68;80.62;101638.63;4850262;29;45753;-86
2022/02/05 03:03:54;;;;;;;;;3.00;3.00;;;;;6.66;80.99;101640.28;4834434;29;45451;-86
2022/02/05 03:06:19;;;;;;;;;3.67;3.00;;;;;6.65;81.13;101645.53;4834226;29;47174;-86
2022/02/05 03:08:47;;;;;;;;;6.67;3.00;;;;;6.59;81.20;101649.69;4834342;29;45424;-86
2022/02/05 03:11:19;;;;;;;;;5.67;2.00;;;;;6.39;81.20;101621.47;4835103;29;45553;-85
2022/02/05 03:13:44;;;;;;;;;3.67;3.67;;;;;6.41;81.46;101641.84;4852390;29;45370;-85
2022/02/05 03:16:09;;;;;;;;;7.67;3.00;;;;;6.51;81.36;101663.41;4852998;29;46557;-84
2022/02/05 03:18:49;;;;;;;;;3.00;3.00;;;;;6.50;81.12;101669.50;4856185;29;45529;-84
2022/02/05 03:21:14;;;;;;;;;6.00;2.33;;;;;6.34;81.38;101636.19;4841100;29;45377;-85
2022/02/05 03:23:40;;;;;;;;;3.00;2.00;;;;;6.39;81.46;101656.72;4840860;29;45402;-85
2022/02/05 03:26:05;;;;;;;;;5.00;3.00;;;;;6.21;81.25;101634.75;4839976;29;47847;-85
2022/02/05 03:28:33;;;;;;;;;3.00;2.00;;;;;6.21;81.12;101637.38;4839665;29;45511;-86
2022/02/05 03:30:59;;;;;;;;;2.33;2.33;;;;;6.36;81.30;101660.94;4839136;29;45444;-86
2022/02/05 03:33:24;;;;;;;;;4.33;4.33;;;;;6.44;81.76;101675.41;4838374;29;45480;-86
2022/02/05 03:35:51;;;;;;;;;3.00;3.00;;;;;6.39;81.89;101669.03;4837325;29;47288;-85
2022/02/05 03:38:23;;;;;;;;;2.33;2.33;;;;;6.33;82.00;101655.53;4855494;29;45421;-85
2022/02/05 03:40:48;;;;;;;;;6.00;4.33;;;;;6.40;81.55;101681.38;4836721;29;45729;-86
2022/02/05 03:43:14;;;;;;;;;5.00;2.00;;;;;6.39;81.69;101682.25;4852340;29;45700;-86
2022/02/05 03:45:39;;;;;;;;;3.67;2.00;;;;;6.25;81.70;101656.94;4837809;29;47648;-84
2022/02/05 03:48:06;;;;;;;;;3.67;3.00;;;;;6.31;82.12;101673.06;4838089;29;45518;-85
2022/02/05 03:50:32;;;;;;;;;4.67;3.00;;;;;6.39;81.95;101685.78;4836170;29;45638;-86
2022/02/05 03:52:58;;;;;;;;;5.33;5.33;;;;;6.39;81.93;101693.69;4835954;29;45780;-87
2022/02/05 03:55:24;;;;;;;;;4.33;2.33;;;;;6.40;81.63;101689.31;4853136;29;46706;-86
2022/02/05 03:57:51;;;;;;;;;2.67;2.00;;;;;6.35;82.12;101691.75;4838248;29;45806;-86
2022/02/05 04:00:17;;;;;;;;;3.00;3.00;;;;;6.28;82.00;101678.19;4840439;29;45476;-86
2022/02/05 04:02:42;;;;;;;;;4.33;2.67;;;;;6.19;81.69;101673.38;4839996;29;45373;-85
2022/02/05 04:08:32;;;;;;;;;4.33;1.67;;;;;6.24;82.25;101670.94;4856979;29;45728;-85
2022/02/05 04:11:09;;;;;;;;;2.00;2.00;;;;;6.29;81.83;101688.81;4839748;29;45181;-86
2022/02/05 04:16:22;;;;;;;;;2.00;2.00;;;;;6.30;82.07;101676.53;4854794;29;45358;-86
2022/02/05 04:18:59;;;;;;;;;3.00;2.33;;;;;6.40;82.19;101689.31;4838139;29;45355;-85
2022/02/05 04:21:25;;;;;;;;;2.00;1.33;;;;;6.31;82.15;101686.28;4837813;29;45526;-86
2022/02/05 04:23:52;;;;;;;;;3.00;3.00;;;;;6.29;82.18;101674.72;4853886;29;45539;-85
2022/02/05 04:26:20;;;;;;;;;2.67;2.67;;;;;6.33;82.44;101684.59;4854011;29;46855;-86
2022/02/05 04:28:46;;;;;;;;;3.00;3.00;;;;;6.23;82.17;101690.28;4852934;29;45483;-85
2022/02/05 04:31:12;;;;;;;;;3.00;3.00;;;;;6.17;82.16;101681.22;4855609;29;45502;-85
2022/02/05 04:33:38;;;;;;;;;2.00;2.00;;;;;6.03;82.24;101661.19;4856781;29;45811;-85
2022/02/05 04:36:05;;;;;;;;;1.33;1.33;;;;;6.12;82.62;101682.78;4855686;29;45442;-85
2022/02/05 04:38:33;;;;;;;;;3.67;3.67;;;;;6.20;82.74;101691.97;4838843;29;45708;-85
2022/02/05 05:02:38;;;;;;;;;2.00;1.00;;;;;6.26;82.75;101711.56;4852478;29;45307;-85
2022/02/05 05:05:25;;;;;;;;;2.00;2.00;;;;;6.25;82.98;101699.19;4852844;29;45724;-86
2022/02/05 05:20:40;;;;;;;;;2.67;1.00;;;;;6.29;83.09;101701.13;4852819;29;45623;-85
2022/02/05 05:23:07;;;;;;;;;3.00;3.00;;;;;6.32;83.01;101709.19;4837260;29;45650;-85
2022/02/05 05:25:32;;;;;;;;;5.00;2.67;;;;;6.24;83.35;101714.16;4837270;29;44834;-84
2022/02/05 05:27:58;;;;;;;;;7.33;3.00;;;;;6.20;82.97;101710.44;4846665;29;46698;-86
2022/02/05 05:30:24;;;;;;;;;2.00;2.00;;;;;6.21;83.51;101713.97;4835897;29;45936;-86
2022/02/05 05:32:50;;;;;;;;;3.67;2.00;;;;;6.00;83.33;101683.09;4835057;29;45524;-86
2022/02/05 05:35:16;;;;;;;;;3.00;3.00;;;;;6.20;83.25;101707.81;4834682;29;45427;-87
2022/02/05 05:37:41;;;;;;;;;5.00;2.33;;;;;6.12;83.16;101698.63;4834732;29;47044;-85
2022/02/05 05:40:08;;;;;;;;;2.67;1.33;;;;;6.25;83.45;101717.69;4835607;29;45007;-86
2022/02/05 05:46:18;;;;;;;;;1.00;1.00;;;;;6.25;83.10;101715.94;4775948;29;45570;-86
2022/02/05 05:51:18;;;;;;;;;2.33;2.00;;;;;6.21;83.38;101720.16;4776032;29;45418;-86
2022/02/05 05:53:44;;;;;;;;;1.33;1.33;;;;;6.21;83.45;101724.56;4776090;29;45700;-86
2022/02/05 05:56:11;;;;;;;;;2.00;2.00;;;;;6.11;83.94;101709.09;4775590;29;45453;-86
2022/02/05 05:58:38;;;;;;;;;2.33;1.33;;;;;6.08;83.60;101709.88;4775518;29;45479;-86
2022/02/05 06:01:04;;;;;;;;;2.67;1.00;;;;;6.15;83.62;101714.59;4776389;29;45522;-85
2022/02/05 06:03:32;;;;;;;;;3.00;3.00;;;;;6.14;84.10;101720.72;4776918;29;45388;-86
2022/02/05 06:05:57;;;;;;;;;1.00;1.00;;;;;6.11;83.75;101719.66;4777094;29;45857;-84
2022/02/05 06:08:22;;;;;;;;;1.00;0.33;;;;;6.16;84.00;101726.06;4776483;29;45701;-87
2022/02/05 06:10:48;;;;;;;;;2.00;2.00;;;;;6.11;83.95;101723.19;4761513;29;45479;-86
2022/02/05 06:13:13;;;;;;;;;1.00;1.00;;;;;6.10;83.70;101720.47;4760922;29;45807;-85
2022/02/05 06:15:40;;;;;;;;;0.67;0.67;;;;;6.05;83.92;101711.44;4778543;29;45542;-85
2022/02/05 06:18:07;;;;;;;;;1.00;1.00;;;;;6.18;83.93;101743.81;4778034;29;47691;-85
2022/02/05 06:20:33;;;;;;;;;4.33;2.00;;;;;6.19;84.12;101736.78;4778136;29;45627;-87
2022/02/05 06:22:58;;;;;;;;;2.00;2.00;;;;;6.13;83.83;101721.53;4832347;29;45329;-85
2022/02/05 06:25:23;;;;;;;;;2.00;1.67;;;;;6.13;83.98;101726.81;4837588;29;45629;-85
2022/02/05 06:27:49;;;;;;;;;2.00;1.33;;;;;6.09;84.06;101738.06;4836086;29;46743;-85
2022/02/05 06:30:14;;;;;;;;;3.00;3.00;;;;;6.05;84.33;101741.41;4853365;29;45688;-85
2022/02/05 06:32:41;;;;;;;;;2.67;1.33;;;;;6.03;84.21;101734.25;4852379;29;45987;-85
2022/02/05 06:35:08;;;;;;;;;2.00;2.00;;;;;6.07;84.05;101741.47;4836262;29;45640;-85
2022/02/05 06:37:33;;;;;;;;;4.33;2.33;;;;;6.04;84.67;101742.25;4836417;29;46988;-87
2022/02/05 06:39:59;;;;;;;;;2.67;2.00;;;;;6.07;84.54;101739.72;4836905;29;46279;-85
2022/02/05 06:42:25;;;;;;;;;7.67;1.67;;;;;6.07;84.67;101746.75;4853450;29;45783;-84
2022/02/05 06:44:59;;;;;;;;;3.00;1.00;;;;;6.04;84.66;101749.22;4836922;29;45787;-86
2022/02/05 06:47:24;;;;;;;;;3.67;3.67;;;;;6.07;84.68;101763.50;4851164;29;47725;-85
2022/02/05 06:49:50;;;;;;;;;4.33;2.00;;;;;6.06;84.45;101764.34;4852903;29;45472;-86
2022/02/05 06:52:15;;;;;;;;;2.00;2.00;;;;;6.03;84.52;101766.81;4838121;29;45529;-86
2022/02/05 06:54:41;;;;;;;;;3.67;1.33;;;;;6.01;84.41;101765.84;4839553;29;45488;-85
2022/02/05 06:57:06;;;;;;;;;6.00;2.33;;;;;6.01;84.81;101776.41;4839053;29;47021;-84
2022/02/05 06:59:32;;;;;;;;;3.00;2.67;;;;;6.04;84.95;101779.22;4839546;29;46031;-84
2022/02/05 07:01:57;;;;;;;;;2.33;1.00;;;;;6.08;84.79;101786.44;4839464;29;45885;-86
2022/02/05 07:04:25;;;;;;;;;2.67;1.33;;;;;5.90;84.83;101759.06;4854086;29;45385;-87
2022/02/05 07:06:53;;;;;;;;;4.33;2.67;;;;;6.10;85.16;101792.72;4856223;29;45402;-85
2022/02/05 07:09:21;;;;;;;;;2.33;2.00;;;;;6.13;84.88;101790.22;4856532;29;45551;-85
2022/02/05 07:11:47;;;;;;;;;5.33;2.00;;;;;6.18;85.16;101791.34;4840077;29;45327;-86
2022/02/05 07:14:15;;;;;;;;;7.00;3.00;;;;;6.26;84.95;101794.38;4841657;29;45573;-84
2022/02/05 07:16:49;;;;;;;;;2.00;1.00;;;;;6.32;84.57;101804.31;4838561;29;48349;-85
2022/02/05 07:21:47;;;;;;;;;2.33;2.33;;;;;6.55;84.74;101808.97;4854657;29;44788;-85
2022/02/05 07:24:23;;;;;;;;;5.00;2.00;;;;;6.54;84.51;101799.22;4854985;29;45388;-85
2022/02/05 07:29:32;;;;;;;;;3.00;3.00;;;;;6.57;84.23;101799.38;4854241;29;45338;-85
2022/02/05 07:31:58;;;;;;;;;0.67;0.67;;;;;6.57;84.26;101815.22;4837961;29;45764;-85
2022/02/05 07:34:29;;;;;;;;;2.33;2.33;;;;;6.54;84.48;101822.09;4838878;29;45614;-86
2022/02/05 07:37:05;;;;;;;;;2.00;2.00;;;;;6.48;84.47;101820.06;4839243;29;47319;-85
2022/02/05 07:39:32;;;;;;;;;1.00;1.00;;;;;6.46;84.61;101824.38;4838394;29;45666;-84
2022/02/05 07:42:00;;;;;;;;;2.00;2.00;;;;;6.50;84.66;101828.97;4838904;29;45675;-85
2022/02/05 07:44:26;;;;;;;;;1.33;1.33;;;;;6.44;84.51;101828.66;4837811;29;45398;-85
2022/02/05 07:46:53;;;;;;;;;3.00;3.00;;;;;6.51;84.86;101829.91;4838111;29;47505;-86
2022/02/05 07:49:22;;;;;;;;;2.00;2.00;;;;;6.54;84.74;101825.63;4855951;29;45484;-85
2022/02/05 07:51:47;;;;;;;;;6.67;3.67;;;;;6.36;84.97;101791.34;4838373;29;45270;-86
2022/02/05 07:54:13;;;;;;;;;4.00;2.33;;;;;6.43;84.67;101813.66;4855547;29;45756;-85
2022/02/05 07:56:43;;;;;;;;;1.67;1.67;;;;;6.52;84.70;101824.66;4855673;29;45881;-86
2022/02/05 07:59:12;;;;;;;;;3.00;3.00;;;;;6.55;84.83;101838.03;4855495;29;45937;-86
2022/02/05 08:02:21;;;;;;;;;6.00;2.00;;;;;6.61;84.71;101833.03;4834644;29;45391;-85
2022/02/05 08:04:47;;;;;;;;;2.00;2.00;;;;;6.56;84.55;101831.94;4818900;29;45882;-85
2022/02/05 08:07:13;;;;;;;;;4.33;2.67;;;;;6.60;85.00;101831.25;4819984;29;47092;-85
2022/02/05 08:10:00;;;;;;;;;3.00;3.00;;;;;6.57;85.02;101825.81;4819681;29;45448;-85
2022/02/05 08:12:27;;;;;;;;;5.67;2.33;;;;;6.59;84.85;101810.91;4821373;29;45718;-85
2022/02/05 08:14:54;;;;;;;;;2.00;2.00;;;;;6.67;84.85;101820.97;4835892;29;45392;-85
2022/02/05 08:19:49;;;;;;;;;2.67;1.33;;;;;6.68;84.61;101821.00;4838626;29;45565;-85
2022/02/05 08:22:15;;;;;;;;;2.00;2.00;;;;;6.73;85.02;101819.50;4837992;29;45431;-84
2022/02/05 08:24:41;;;;;;;;;3.00;3.00;;;;;6.81;84.83;101814.59;4837449;29;45308;-86
2022/02/05 08:27:06;;;;;;;;;3.00;3.00;;;;;6.80;84.79;101812.75;4818704;29;47106;-86
2022/02/05 08:29:34;;;;;;;;;2.33;2.00;;;;;6.84;85.06;101813.81;4819278;29;45828;-86
2022/02/05 08:31:59;;;;;;;;;7.67;4.33;;;;;6.87;85.04;101809.56;4822451;29;45365;-85
2022/02/05 08:34:25;;;;;;;;;5.33;5.00;;;;;6.94;84.71;101810.75;4838598;29;45421;-85
2022/02/05 08:36:51;;;;;;;;;2.00;2.00;;;;;6.99;84.94;101812.78;4821793;29;47415;-86
2022/02/05 08:39:20;;;;;;;;;3.00;2.67;;;;;6.97;84.83;101801.22;4837129;29;45126;-85
2022/02/05 08:41:45;;;;;;;;;4.00;3.00;;;;;7.13;85.11;101812.47;4820280;29;45494;-85
2022/02/05 08:44:11;;;;;;;;;3.00;2.00;;;;;7.19;84.88;101821.63;4834556;29;45446;-86
2022/02/05 08:46:36;;;;;;;;;6.67;5.00;;;;;7.19;84.71;101811.03;4818399;29;48557;-85
2022/02/05 08:49:03;;;;;;;;;2.33;2.33;;;;;7.25;84.57;101815.72;4818714;29;45809;-86
2022/02/05 08:51:29;;;;;;;;;2.00;2.00;;;;;7.25;84.49;101818.34;4820102;29;45345;-85
2022/02/05 08:53:55;;;;;;;;;1.67;1.67;;;;;7.35;84.42;101831.16;4820547;29;45403;-86
2022/02/05 08:56:23;;;;;;;;;7.00;5.67;;;;;7.41;84.25;101825.22;4836755;29;45422;-86
2022/02/05 08:58:51;;;;;;;;;4.33;2.67;;;;;7.42;84.07;101816.44;4834380;29;45488;-85
2022/02/05 09:01:21;;;;;;;;;1.00;1.00;;;;;7.34;84.31;101810.81;4835571;29;45518;-86
2022/02/05 09:03:59;;;;;;;;;3.00;3.00;;;;;7.43;84.42;101806.75;4818408;29;45423;-86
2022/02/05 09:06:32;;;;;;;;;1.00;1.00;;;;;7.45;83.98;101815.66;4819043;29;47062;-86
2022/02/05 09:09:09;;;;;;;;;5.00;5.00;;;;;7.63;84.26;101832.34;4818272;29;45787;-86
2022/02/05 09:12:29;;;;;;;;;2.33;2.33;;;;;7.69;83.95;101837.03;4818952;29;45523;-86
2022/02/05 09:16:52;;;;;;;;;4.33;2.00;;;;;7.78;83.85;101834.78;4835062;29;45979;-86
2022/02/05 09:19:18;;;;;;;;;2.00;2.00;;;;;7.79;83.83;101834.81;4831715;29;45600;-86
2022/02/05 09:21:43;;;;;;;;;2.33;2.33;;;;;7.80;83.87;101826.06;4817551;29;45437;-86
2022/02/05 09:24:12;;;;;;;;;2.00;2.00;;;;;7.90;83.89;101837.94;4848973;29;45456;-85
2022/02/05 09:26:43;;;;;;;;;4.00;2.67;;;;;7.79;83.88;101810.09;4836516;29;46905;-85
2022/02/05 09:29:32;;;;;;;;;2.33;2.00;;;;;7.95;83.59;101827.53;4854633;29;45794;-85
2022/02/05 09:32:12;;;;;;;;;6.33;3.67;;;;;8.05;83.30;101828.84;4853160;29;45808;-85
2022/02/05 09:34:37;;;;;;;;;2.67;2.67;;;;;8.06;83.56;101828.91;4837821;29;45559;-86
2022/02/05 09:37:04;;;;;;;;;4.33;2.67;;;;;8.17;83.47;101838.19;4853149;29;45946;-86
2022/02/05 09:40:08;;;;;;;;;1.00;1.00;;;;;8.31;83.31;101838.75;4836384;29;45536;-85
2022/02/05 09:42:33;;;;;;;;;5.00;2.67;;;;;8.25;82.84;101830.56;4836679;29;45919;-86
2022/02/05 09:45:02;;;;;;;;;2.67;2.00;;;;;8.35;83.01;101830.09;4835793;29;45781;-86
2022/02/05 09:47:28;;;;;;;;;6.00;5.00;;;;;8.40;82.78;101840.88;4837726;29;46780;-84
2022/02/05 09:49:54;;;;;;;;;3.00;3.00;;;;;8.41;83.10;101834.78;4853506;29;45382;-86
2022/02/05 09:52:26;;;;;;;;;5.33;3.67;;;;;8.49;82.60;101846.59;4852980;29;45374;-86
2022/02/05 09:54:52;;;;;;;;;1.00;1.00;;;;;8.55;82.92;101849.50;4836513;29;45436;-86
2022/02/05 09:57:20;;;;;;;;;4.33;3.00;;;;;8.54;82.72;101845.03;4836225;29;47297;-85
2022/02/05 09:59:56;;;;;;;;;3.33;2.00;;;;;8.64;82.50;101853.34;4835985;29;44814;-85
2022/02/05 10:02:29;;;;;;;;;3.00;3.00;;;;;8.72;82.24;101854.56;4852624;29;45467;-85
2022/02/05 10:05:09;;;;;;;;;3.00;3.00;;;;;8.73;82.92;101846.66;4853607;29;45579;-85
2022/02/05 10:07:54;;;;;;;;;3.00;3.00;;;;;8.80;82.66;101854.00;4835460;29;47738;-85
2022/02/05 10:10:20;;;;;;;;;2.33;1.33;;;;;8.71;82.28;101842.16;4836431;29;45753;-86
2022/02/05 10:13:06;;;;;;;;;6.33;2.33;;;;;8.93;82.35;101860.72;4852802;29;45456;-86
2022/02/05 10:15:34;;;;;;;;;2.00;2.00;;;;;8.80;82.19;101835.44;4851932;29;45353;-86
2022/02/05 10:18:02;;;;;;;;;4.33;2.00;;;;;8.84;81.70;101844.41;4840980;29;46863;-86
2022/02/05 10:20:28;;;;;;;;;6.00;2.00;;;;;8.98;81.94;101859.13;4839924;29;45637;-84
2022/02/05 10:22:54;;;;;;;;;2.67;2.33;;;;;8.97;81.55;101856.44;4855455;29;45303;-86
2022/02/05 10:25:24;;;;;;;;;2.00;2.00;;;;;9.09;81.47;101866.59;4856172;29;44860;-85
2022/02/05 10:27:51;;;;;;;;;3.00;2.00;;;;;9.09;81.63;101864.84;4841120;29;45292;-83
2022/02/05 10:30:27;;;;;;;;;5.00;4.00;;;;;8.99;81.61;101847.69;4840508;29;45398;-86
2022/02/05 10:33:08;;;;;;;;;4.00;2.33;;;;;9.18;81.51;101875.81;4838226;29;45625;-86
2022/02/05 10:36:13;;;;;;;;;3.00;3.00;;;;;9.23;81.11;101875.06;4839334;29;45531;-86
2022/02/05 10:43:56;;;;;;;;;1.33;1.33;;;;;9.11;81.07;101851.63;4854316;29;45481;-86
2022/02/05 10:46:44;;;;;;;;;3.33;2.00;;;;;9.32;80.77;101865.72;4853873;29;45436;-86
2022/02/05 10:49:11;;;;;;;;;2.67;2.67;;;;;9.37;81.05;101885.38;4837541;29;47106;-86
2022/02/05 10:51:39;;;;;;;;;3.00;1.00;;;;;9.37;80.68;101879.16;4837207;29;45430;-85
2022/02/05 10:54:13;;;;;;;;;4.67;2.00;;;;;9.36;80.25;101898.59;4837885;29;45505;-86
2022/02/05 10:56:56;;;;;;;;;3.67;2.00;;;;;9.19;81.19;101884.69;4855179;29;45470;-85
2022/02/05 11:05:14;;;;;;;;;3.33;3.33;;;;;9.18;80.80;101889.06;4837937;29;46953;-85
2022/02/05 11:05:22;;;;;;;;;3.00;3.00;;;;;9.27;80.78;101891.19;4854807;29;45760;-86
2022/02/05 11:07:50;;;;;;;;;2.33;2.00;;;;;9.39;80.79;101894.31;4855112;29;45583;-85
2022/02/05 11:10:53;;;;;;;;;3.33;2.00;;;;;9.48;80.55;101903.47;4853426;29;46835;-85
2022/02/05 11:19:04;;;;;;;;;1.33;1.33;;;;;9.58;80.36;101897.66;4855121;29;45357;-86
2022/02/05 11:21:30;;;;;;;;;2.00;2.00;;;;;9.64;80.30;101884.59;4854673;29;45946;-85
2022/02/05 11:24:04;;;;;;;;;3.00;1.33;;;;;9.57;80.27;101858.63;4853524;29;45958;-85
2022/02/05 11:26:34;;;;;;;;;3.00;3.00;;;;;9.73;79.96;101876.94;4838990;29;45457;-85
2022/02/05 11:29:10;;;;;;;;;1.67;1.67;;;;;9.63;79.92;101852.66;4837390;29;44880;-86
2022/02/05 11:31:41;;;;;;;;;1.33;1.33;;;;;9.78;79.79;101872.69;4843756;29;45440;-86
2022/02/05 11:34:13;;;;;;;;;1.33;1.33;;;;;9.94;79.25;101883.88;4837087;29;45366;-86
2022/02/05 11:36:44;;;;;;;;;1.67;1.67;;;;;9.98;79.10;101881.38;4836915;29;44777;-86
2022/02/05 11:39:17;;;;;;;;;3.00;3.00;;;;;9.95;79.06;101840.50;4837215;29;45519;-85
2022/02/05 11:42:36;;;;;;;;;;;;;;;;;;;;;
2022/02/05 11:45:26;;;;;;;;;7.00;3.00;;;;;10.22;78.84;101864.47;4852116;29;72978;-86
2022/02/05 11:47:52;;;;;;;;;2.67;2.00;;;;;10.26;79.01;101860.13;4837258;29;45402;-86
2022/02/05 11:50:25;;;;;;;;;3.00;2.00;;;;;10.25;77.43;101847.69;4852408;29;45931;-85
2022/02/05 11:52:51;;;;;;;;;4.67;1.67;;;;;10.31;77.35;101858.56;4852623;29;46757;-85
2022/02/05 11:55:38;;;;;;;;;0.67;0.67;;;;;10.40;76.88;101864.19;4838977;29;45920;-85
2022/02/05 11:58:09;;;;;;;;;1.00;1.00;;;;;10.26;77.29;101841.53;4838658;29;45879;-85
2022/02/05 12:00:36;;;;;;;;;1.00;1.00;;;;;10.29;77.12;101854.94;4853534;29;45584;-86
2022/02/05 12:03:17;;;;;;;;;0.00;0.00;;;;;10.40;75.85;101833.19;4837135;29;48062;-86
2022/02/05 12:05:51;;;;;;;;;2.00;0.00;;;;;10.36;74.72;101822.38;4854877;29;45300;-86
2022/02/05 12:08:16;;;;;;;;;1.00;1.00;;;;;10.42;72.97;101846.50;4852654;29;44891;-86
2022/02/05 12:10:48;;;;;;;;;0.33;0.33;;;;;10.34;74.77;101829.41;4838444;29;45579;-85
2022/02/05 12:13:24;;;;;;;;;0.00;0.00;;;;;10.39;75.04;101838.44;4837232;29;47756;-85
2022/02/05 12:15:56;;;;;;;;;1.00;1.00;;;;;10.52;75.59;101832.69;4837757;29;46009;-85
2022/02/05 12:18:26;;;;;;;;;6.00;3.00;;;;;10.56;75.66;101834.59;4855623;29;45480;-85
2022/02/05 12:20:58;;;;;;;;;2.67;1.00;;;;;10.53;75.24;101818.53;4840160;29;45536;-86
2022/02/05 12:25:59;;;;;;;;;3.00;1.67;;;;;10.63;75.52;101818.81;4856914;29;45198;-85
2022/02/05 12:28:47;;;;;;;;;2.00;1.33;;;;;10.64;74.79;101826.81;4854936;29;45333;-84
2022/02/05 12:31:28;;;;;;;;;2.00;1.00;;;;;10.65;72.79;101819.78;4855879;29;45412;-86
2022/02/05 12:33:56;;;;;;;;;1.00;1.00;;;;;10.58;73.45;101816.00;4836952;29;47590;-85
2022/02/05 12:36:46;;;;;;;;;1.00;1.00;;;;;10.61;72.69;101810.78;4852614;29;45856;-86
2022/02/05 12:39:25;;;;;;;;;3.33;2.00;;;;;10.58;72.12;101814.25;4854515;29;45462;-85
2022/02/05 12:42:11;;;;;;;;;2.67;2.00;;;;;10.55;71.07;101800.84;4853638;29;45487;-86
2022/02/05 12:44:38;;;;;;;;;2.67;1.00;;;;;10.58;70.99;101810.66;4847259;29;45796;-85
2022/02/05 12:47:28;;;;;;;;;1.67;0.67;;;;;10.59;70.37;101802.75;4854198;29;45716;-86
2022/02/05 12:50:07;;;;;;;;;2.00;0.67;;;;;10.69;69.36;101803.03;4854621;29;45484;-86
2022/02/05 12:52:33;;;;;;;;;0.33;0.33;;;;;10.49;69.32;101766.09;4853723;29;45724;-86
2022/02/05 12:55:01;;;;;;;;;4.00;1.00;;;;;10.55;68.63;101768.03;4854156;29;45245;-86
2022/02/05 12:57:28;;;;;;;;;3.00;2.00;;;;;10.77;68.29;101791.78;4837564;29;45412;-86
2022/02/05 12:59:54;;;;;;;;;2.33;1.33;;;;;10.88;68.04;101792.06;4837391;29;45798;-85
2022/02/05 13:02:23;;;;;;;;;2.67;2.67;;;;;11.07;67.87;101811.25;4837522;29;45430;-86
2022/02/05 13:05:02;;;;;;;;;4.67;1.33;;;;;11.01;66.30;101783.59;4856372;29;46098;-86
2022/02/05 13:07:29;;;;;;;;;1.00;1.00;;;;;11.09;64.51;101805.13;4856784;29;45403;-85
2022/02/05 13:09:59;;;;;;;;;1.00;1.00;;;;;10.96;65.82;101798.53;4855903;29;45469;-85
2022/02/05 13:12:40;;;;;;;;;2.00;2.00;;;;;11.05;65.19;101813.88;4854316;29;45531;-85
2022/02/05 13:15:32;;;;;;;;;2.00;2.00;;;;;11.00;66.14;101824.38;4837288;29;45585;-86
2022/02/05 13:26:11;;;;;;;;;3.00;3.00;;;;;10.91;67.02;101801.94;4853944;29;45685;-85
2022/02/05 13:29:17;;;;;;;;;0.33;0.33;;;;;10.92;66.30;101799.28;4836075;29;45428;-85
2022/02/05 13:34:34;;;;;;;;;3.00;1.00;;;;;10.97;65.02;101795.03;4851374;29;45757;-86
2022/02/05 13:39:42;;;;;;;;;0.67;0.67;;;;;10.89;65.31;101787.69;4851851;29;45444;-86
2022/02/05 13:42:17;;;;;;;;;1.00;1.00;;;;;10.80;65.06;101778.53;4835677;29;45450;-85
2022/02/05 13:45:00;;;;;;;;;2.00;1.00;;;;;10.89;66.15;101785.91;4836844;29;45693;-85
2022/02/05 13:47:37;;;;;;;;;1.00;1.00;;;;;11.00;66.11;101779.13;4835764;29;47292;-85
2022/02/05 13:50:22;;;;;;;;;1.00;1.00;;;;;11.08;65.97;101773.13;4835392;29;45613;-85
2022/02/05 13:52:52;;;;;;;;;2.00;2.00;;;;;11.00;65.29;101763.16;4836125;29;45530;-85
2022/02/05 13:55:29;;;;;;;;;1.33;1.33;;;;;11.04;63.54;101769.47;4835744;29;46111;-85
2022/02/05 13:58:04;;;;;;;;;2.67;1.33;;;;;10.98;64.13;101767.53;4852144;29;46613;-86
2022/02/05 14:00:49;;;;;;;;;0.00;0.00;;;;;10.95;61.31;101772.78;4851999;29;45874;-85
2022/02/05 14:03:34;;;;;;;;;3.00;3.00;;;;;10.92;63.01;101777.09;4835792;29;45493;-85
2022/02/05 14:06:07;;;;;;;;;1.00;1.00;;;;;10.87;63.03;101781.41;4836252;29;45653;-86
2022/02/05 14:08:47;;;;;;;;;3.00;2.00;;;;;10.84;63.01;101779.53;4836197;29;47328;-85
2022/02/05 14:11:15;;;;;;;;;2.67;2.67;;;;;10.78;62.12;101776.69;4836400;29;45998;-84
2022/02/05 14:14:21;;;;;;;;;2.00;1.00;;;;;10.84;60.89;101779.53;4851933;29;45156;-85
2022/02/05 14:16:47;;;;;;;;;0.67;0.67;;;;;10.66;60.76;101752.38;4852671;29;45463;-85
2022/02/05 14:19:24;;;;;;;;;3.00;1.00;;;;;10.83;60.86;101767.09;4853122;29;46206;-86
2022/02/05 14:21:52;;;;;;;;;2.00;1.00;;;;;10.81;60.02;101772.38;4837286;29;45744;-86
2022/02/05 14:24:22;;;;;;;;;3.33;2.33;;;;;10.79;60.09;101762.56;4836734;29;44784;-85
2022/02/05 14:27:01;;;;;;;;;2.00;2.00;;;;;10.76;60.57;101762.44;4838134;29;46030;-85
2022/02/05 14:29:34;;;;;;;;;1.00;1.00;;;;;10.74;60.77;101769.47;4851399;29;47436;-86
2022/02/05 14:32:08;;;;;;;;;1.00;1.00;;;;;10.76;60.57;101773.97;4837118;29;45232;-85
2022/02/05 14:34:44;;;;;;;;;1.00;1.00;;;;;10.79;60.51;101781.19;4854007;29;45431;-85
2022/02/05 14:42:23;;;;;;;;;1.00;1.00;;;;;10.80;59.75;101770.56;4854977;29;45510;-87
2022/02/05 14:44:49;;;;;;;;;0.33;0.00;;;;;10.77;58.59;101764.25;4837473;29;45286;-86
2022/02/05 14:47:16;;;;;;;;;0.67;0.33;;;;;10.81;58.53;101774.16;4854690;29;45355;-85
2022/02/05 14:49:42;;;;;;;;;1.67;0.00;;;;;10.76;59.14;101768.66;4852823;29;46966;-85
2022/02/05 14:52:13;;;;;;;;;2.67;2.33;;;;;10.62;58.68;101743.41;4853158;29;45548;-85
2022/02/05 14:54:40;;;;;;;;;1.00;1.00;;;;;10.74;60.53;101765.06;4837145;29;45391;-85
2022/02/05 14:57:09;;;;;;;;;0.67;0.67;;;;;10.79;59.58;101770.53;4836933;29;45599;-86
2022/02/05 14:59:35;;;;;;;;;3.67;2.33;;;;;10.86;59.14;101776.94;4837326;29;45808;-85
2022/02/05 15:02:00;;;;;;;;;3.00;1.67;;;;;10.89;59.89;101783.25;4853376;29;45393;-85
2022/02/05 15:04:26;;;;;;;;;0.67;0.67;;;;;10.70;60.48;101730.34;4837440;29;45701;-85